Time;durP1;ratioP1;P1;durP2;ratioP2;P2;SDS_P1;SDS_P2;PMS_P1;PMS_P2;Temp;Humidity;BMP_temperature;BMP_pressure;BME280_temperature;BME280_humidity;BME280_pressure;Samples;Min_cycle;Max_cycle;Signal;HPM_P1;HPM_P2
2021/07/07 05:15:55;;;;;;;7.78;2.33;;;;;;;31.22;39.92;100800.09;1695944;83;21155;-73
2021/07/07 05:18:30;;;;;;;7.33;2.33;;;;;;;32.08;37.29;100807.98;1712782;82;21307;-72
2021/07/07 05:21:05;;;;;;;6.25;2.62;;;;;;;32.56;36.93;100815.25;1680935;83;21315;-72
2021/07/07 05:23:38;;;;;;;9.28;2.92;;;;;;;33.19;36.24;100812.66;1723305;83;21175;-71
2021/07/07 05:26:11;;;;;;;7.85;2.58;;;;;;;33.71;34.95;100811.53;1715836;83;21335;-72
2021/07/07 05:28:44;;;;;;;9.60;2.62;;;;;;;34.20;33.85;100808.40;1719085;82;21308;-72
2021/07/07 05:31:17;;;;;;;5.35;2.12;;;;;;;34.65;33.24;100806.58;1718256;83;21293;-73
2021/07/07 05:33:56;;;;;;;8.78;2.65;;;;;;;35.04;32.11;100810.94;1711281;82;21873;-75
2021/07/07 05:36:30;;;;;;;7.28;2.75;;;;;;;35.29;31.54;100803.66;1716454;81;21329;-71
2021/07/07 05:39:03;;;;;;;5.00;2.12;;;;;;;35.66;31.61;100807.39;1720702;83;21304;-74
2021/07/07 05:41:39;;;;;;;8.43;2.65;;;;;;;35.94;30.27;100806.28;1720359;81;21550;-72
2021/07/07 05:44:12;;;;;;;4.80;2.50;;;;;;;36.14;29.42;100807.41;1713323;83;21918;-74
2021/07/07 05:46:47;;;;;;;4.47;2.40;;;;;;;36.26;29.16;100814.08;1723182;81;21360;-73
2021/07/07 05:49:20;;;;;;;3.90;2.30;;;;;;;36.33;29.05;100811.80;1722779;83;21330;-77
2021/07/07 05:51:53;;;;;;;7.60;2.45;;;;;;;36.45;28.70;100815.45;1717558;83;21828;-73
2021/07/07 05:54:26;;;;;;;6.90;2.33;;;;;;;36.55;28.78;100816.71;1712846;82;21213;-73
2021/07/07 05:57:00;;;;;;;5.78;2.37;;;;;;;36.82;28.43;100816.05;1715349;82;21289;-78
2021/07/07 05:59:33;;;;;;;4.97;2.30;;;;;;;37.07;28.26;100824.67;1715118;83;21216;-73
2021/07/07 06:02:06;;;;;;;8.33;2.80;;;;;;;37.46;27.98;100822.12;1721952;82;21956;-72
2021/07/07 06:04:41;;;;;;;5.72;2.17;;;;;;;37.99;27.36;100812.39;1716028;82;21300;-73
2021/07/07 06:07:14;;;;;;;8.45;2.30;;;;;;;38.39;26.82;100814.30;1683372;84;21327;-72
2021/07/07 06:09:47;;;;;;;3.83;2.17;;;;;;;38.72;25.79;100818.22;1721337;82;21296;-72
2021/07/07 06:12:20;;;;;;;5.40;2.17;;;;;;;38.93;25.34;100818.02;1711910;82;21310;-74
2021/07/07 06:14:53;;;;;;;6.37;2.15;;;;;;;38.97;24.88;100819.00;1711819;83;21336;-73
2021/07/07 06:17:26;;;;;;;9.75;6.55;;;;;;;38.94;24.99;100823.72;1718979;81;22547;-72
2021/07/07 06:20:00;;;;;;;6.25;2.30;;;;;;;39.09;25.33;100824.72;1723831;81;21378;-69
2021/07/07 06:22:33;;;;;;;9.78;2.37;;;;;;;39.39;24.58;100823.97;1724586;82;21283;-72
2021/07/07 06:25:07;;;;;;;9.93;2.12;;;;;;;39.61;24.60;100823.14;1716763;82;21218;-72
2021/07/07 06:27:40;;;;;;;7.67;2.25;;;;;;;39.73;24.55;100829.39;1708206;82;21276;-73
2021/07/07 06:30:16;;;;;;;6.75;2.20;;;;;;;39.83;24.08;100827.75;1716632;82;21310;-76
2021/07/07 06:32:50;;;;;;;10.28;2.17;;;;;;;40.12;23.83;100826.11;1711470;82;21830;-71
2021/07/07 06:35:30;;;;;;;5.65;2.22;;;;;;;40.33;23.45;100832.61;1722491;82;21351;-72
2021/07/07 06:38:04;;;;;;;3.85;2.00;;;;;;;40.59;23.32;100834.03;1687678;82;21253;-74
2021/07/07 06:40:39;;;;;;;5.65;2.35;;;;;;;40.90;22.76;100833.34;1717719;82;21353;-71
2021/07/07 06:43:13;;;;;;;11.65;2.55;;;;;;;41.01;22.63;100837.92;1708441;83;21359;-71
2021/07/07 06:45:47;;;;;;;7.08;2.05;;;;;;;41.03;22.38;100836.23;1686268;83;21776;-71
2021/07/07 06:48:20;;;;;;;5.22;2.30;;;;;;;41.05;22.63;100835.34;1692414;83;21184;-77
2021/07/07 06:50:54;;;;;;;5.15;2.05;;;;;;;40.88;22.17;100846.59;1686634;83;21818;-70
2021/07/07 06:53:27;;;;;;;3.70;1.82;;;;;;;40.80;22.53;100841.88;1717251;81;21293;-69
2021/07/07 06:56:00;;;;;;;7.03;1.90;;;;;;;40.84;22.13;100839.30;1718774;82;21309;-69
2021/07/07 06:58:33;;;;;;;5.83;2.20;;;;;;;40.95;22.54;100848.28;1720018;81;21352;-70
2021/07/07 07:01:07;;;;;;;6.58;2.35;;;;;;;41.38;22.50;100842.74;1723728;81;21219;-70
2021/07/07 07:03:41;;;;;;;5.10;2.12;;;;;;;41.75;21.72;100849.42;1719849;82;21178;-75
2021/07/07 07:06:14;;;;;;;16.23;2.77;;;;;;;41.62;21.71;100849.05;1723442;81;21261;-71
2021/07/07 07:08:49;;;;;;;6.00;2.05;;;;;;;41.28;22.28;100845.02;1715601;81;21278;-67
2021/07/07 07:11:22;;;;;;;7.90;2.25;;;;;;;41.17;22.50;100854.16;1714777;81;21333;-74
2021/07/07 07:13:55;;;;;;;8.18;2.10;;;;;;;41.30;22.24;100853.17;1717178;81;21667;-73
2021/07/07 07:16:28;;;;;;;6.67;2.30;;;;;;;41.67;22.34;100852.19;1725168;81;21296;-67
2021/07/07 07:19:01;;;;;;;7.28;2.02;;;;;;;41.94;21.62;100852.58;1733437;81;21852;-69
2021/07/07 07:21:34;;;;;;;5.90;2.27;;;;;;;42.08;21.47;100858.68;1742691;81;21288;-70
2021/07/07 07:24:10;;;;;;;13.72;2.50;;;;;;;42.17;21.40;100856.71;1742546;81;21182;-70
2021/07/07 07:26:43;;;;;;;6.95;1.98;;;;;;;42.34;21.40;100853.05;1738759;81;21336;-67
2021/07/07 07:29:17;;;;;;;6.60;2.25;;;;;;;42.61;20.75;100853.91;1738214;81;21409;-69
2021/07/07 07:31:50;;;;;;;7.78;2.10;;;;;;;42.43;21.19;100859.86;1729608;82;21331;-70
2021/07/07 07:34:25;;;;;;;3.83;1.80;;;;;;;42.32;21.18;100862.77;1731225;81;21370;-75
2021/07/07 07:37:10;;;;;;;7.50;1.90;;;;;;;42.34;21.02;100865.99;1729440;81;21375;-73
2021/07/07 07:39:41;;;;;;;6.87;2.20;;;;;;;42.24;21.32;100862.50;1726958;82;21181;-74
2021/07/07 07:42:15;;;;;;;16.73;2.72;;;;;;;42.30;21.00;100869.19;1728654;82;21295;-76
2021/07/07 07:44:48;;;;;;;8.15;2.15;;;;;;;42.30;20.91;100864.46;1739956;81;21288;-72
2021/07/07 07:47:21;;;;;;;5.90;1.85;;;;;;;42.45;21.00;100859.76;1738601;81;21312;-72
2021/07/07 07:49:56;;;;;;;10.15;2.12;;;;;;;42.61;21.00;100861.39;1725884;82;21331;-70
2021/07/07 07:52:30;;;;;;;4.95;2.10;;;;;;;42.61;20.73;100863.55;1712914;82;21150;-70
2021/07/07 07:55:04;;;;;;;7.47;1.90;;;;;;;42.11;21.17;100875.09;1726545;82;21322;-70
2021/07/07 07:57:39;;;;;;;6.05;2.08;;;;;;;41.37;21.70;100878.22;1720697;82;21173;-66
2021/07/07 08:00:19;;;;;;;11.22;1.92;;;;;;;40.53;22.54;100869.64;1737968;81;21335;-68
2021/07/07 08:02:52;;;;;;;10.15;2.15;;;;;;;39.71;23.21;100865.36;1741834;81;21322;-69
2021/07/07 08:05:26;;;;;;;9.48;2.10;;;;;;;39.01;24.00;100870.64;1737078;81;21272;-67
2021/07/07 08:08:02;;;;;;;4.45;1.87;;;;;;;38.64;25.26;100866.28;1738304;81;21383;-67
2021/07/07 08:10:35;;;;;;;10.03;2.50;;;;;;;38.59;26.00;100871.86;1740083;81;21300;-67
2021/07/07 08:13:10;;;;;;;5.25;2.00;;;;;;;38.98;26.36;100872.62;1741601;81;21253;-71
2021/07/07 08:15:44;;;;;;;7.35;2.05;;;;;;;39.39;24.67;100866.98;1680761;81;21574;-71
2021/07/07 08:18:18;;;;;;;6.80;2.42;;;;;;;39.74;24.47;100876.26;1680244;84;21337;-67
2021/07/07 08:20:52;;;;;;;11.10;2.10;;;;;;;39.95;23.90;100878.13;1678886;84;21197;-69
2021/07/07 08:23:26;;;;;;;10.93;2.20;;;;;;;40.03;23.85;100871.88;1680268;84;21236;-66
2021/07/07 08:25:59;;;;;;;6.53;2.37;;;;;;;39.91;23.79;100873.02;1682964;84;21317;-68
2021/07/07 08:28:32;;;;;;;3.85;1.87;;;;;;;39.97;24.53;100874.50;1683414;84;21300;-67
2021/07/07 08:31:05;;;;;;;7.72;2.20;;;;;;;40.11;23.80;100875.78;1678552;84;21229;-67
2021/07/07 08:33:40;;;;;;;6.17;1.95;;;;;;;40.23;24.01;100867.75;1681111;84;21209;-69
2021/07/07 08:36:18;;;;;;;6.42;1.80;;;;;;;40.39;23.50;100871.66;1680568;84;21298;-67
2021/07/07 08:38:51;;;;;;;15.63;2.10;;;;;;;40.35;23.67;100870.69;1683907;84;21323;-69
2021/07/07 08:41:25;;;;;;;7.50;2.08;;;;;;;40.31;23.03;100870.54;1679318;85;21961;-77
2021/07/07 08:44:00;;;;;;;8.38;1.90;;;;;;;40.23;23.72;100875.98;1687691;84;21217;-69
2021/07/07 08:46:33;;;;;;;11.65;1.77;;;;;;;39.97;23.49;100876.43;1682136;84;21515;-72
2021/07/07 08:49:07;;;;;;;6.58;2.00;;;;;;;39.46;24.03;100875.57;1683676;84;21329;-74
2021/07/07 08:51:41;;;;;;;8.33;1.82;;;;;;;38.57;25.15;100874.66;1675857;84;21182;-73
2021/07/07 08:54:15;;;;;;;7.33;1.90;;;;;;;38.30;25.51;100880.41;1681651;84;21162;-71
2021/07/07 08:56:49;;;;;;;7.25;1.62;;;;;;;38.38;26.00;100881.05;1672583;85;21323;-68
2021/07/07 08:59:22;;;;;;;16.93;2.30;;;;;;;38.38;26.57;100889.25;1675997;83;21308;-75
2021/07/07 09:02:10;;;;;;;9.90;2.02;;;;;;;38.30;26.70;100882.33;1649651;85;21357;-70
2021/07/07 09:04:45;;;;;;;8.40;2.00;;;;;;;38.32;26.33;100885.57;1656961;85;21214;-68
2021/07/07 09:07:22;;;;;;;4.37;1.80;;;;;;;38.31;26.50;100883.97;1674965;85;21230;-72
2021/07/07 09:09:54;;;;;;;6.47;1.80;;;;;;;38.02;26.36;100888.89;1682655;84;21178;-69
2021/07/07 09:12:29;;;;;;;4.92;1.95;;;;;;;37.71;26.79;100890.78;1680200;85;21893;-72
2021/07/07 09:15:16;;;;;;;4.25;1.75;;;;;;;37.54;26.76;100890.56;1683590;84;21302;-70
2021/07/07 09:17:51;;;;;;;11.68;2.40;;;;;;;37.35;27.28;100897.95;1680694;84;21861;-68
2021/07/07 09:20:37;;;;;;;18.85;2.98;;;;;;;36.95;26.81;100906.75;1659785;84;21349;-70
2021/07/07 09:23:25;;;;;;;10.30;2.12;;;;;;;36.58;27.17;100900.69;1657262;85;21204;-70
2021/07/07 09:26:04;;;;;;;7.00;2.13;;;;;;;36.48;28.75;100899.45;1657728;85;21272;-68
2021/07/07 09:28:39;;;;;;;6.60;2.17;;;;;;;36.48;28.97;100903.55;1657821;85;21283;-72
2021/07/07 09:31:35;;;;;;;7.97;2.00;;;;;;;36.41;27.62;100905.78;1654331;86;21975;-68
2021/07/07 09:34:14;;;;;;;9.83;2.90;;;;;;;36.24;28.01;100910.89;1654415;86;21323;-70
2021/07/07 09:36:51;;;;;;;8.10;2.42;;;;;;;35.74;28.09;100906.75;1662123;85;21245;-71
2021/07/07 09:39:22;;;;;;;15.40;2.70;;;;;;;35.43;28.52;100910.80;1653442;85;21359;-71
2021/07/07 09:41:56;;;;;;;;;;;;;;;35.15;29.15;100909.66;1661972;86;21347;-69
2021/07/07 09:44:35;;;;;;;13.08;2.52;;;;;;;34.98;29.00;100911.92;1640495;86;20326;-71
2021/07/07 09:47:08;;;;;;;5.85;2.30;;;;;;;34.78;29.15;100912.02;1657007;85;21295;-67
2021/07/07 09:49:47;;;;;;;6.00;2.25;;;;;;;34.61;30.36;100913.73;1638323;85;21324;-69
2021/07/07 09:52:20;;;;;;;10.38;2.47;;;;;;;34.46;31.58;100923.30;1627935;86;21782;-67
2021/07/07 09:54:53;;;;;;;7.67;2.20;;;;;;;34.40;32.36;100918.42;1646003;86;21323;-72
2021/07/07 09:57:25;;;;;;;;;;;;;;;34.17;32.32;100925.02;1658426;85;22531;-73
2021/07/07 09:59:58;;;;;;;8.93;2.47;;;;;;;33.83;32.19;100926.13;1646738;86;20300;-73
2021/07/07 10:02:31;;;;;;;5.22;2.00;;;;;;;33.61;32.75;100926.41;1624597;87;21193;-71
2021/07/07 10:05:06;;;;;;;7.28;2.02;;;;;;;33.58;33.33;100922.08;1628474;87;21856;-72
2021/07/07 10:07:40;;;;;;;9.65;2.10;;;;;;;33.55;32.24;100928.05;1657906;85;21162;-72
2021/07/07 10:10:15;;;;;;;8.60;2.42;;;;;;;33.49;31.87;100916.86;1663290;85;21899;-72
2021/07/07 10:12:49;;;;;;;2.80;1.90;;;;;;;33.31;33.49;100923.66;1658213;85;21228;-71
2021/07/07 10:15:23;;;;;;;9.75;2.05;;;;;;;32.95;34.02;100921.92;1661799;85;21869;-73
2021/07/07 10:17:58;;;;;;;2.92;1.80;;;;;;;32.69;34.30;100929.17;1657281;85;21394;-73
2021/07/07 10:20:31;;;;;;;6.17;2.15;;;;;;;32.64;34.27;100923.72;1665677;85;21180;-70
2021/07/07 10:23:06;;;;;;;;;;;;;;;32.68;34.05;100935.66;1679426;85;21332;-71
2021/07/07 10:25:38;;;;;;;;;;;;;;;32.69;34.38;100924.28;1672859;85;20646;-69
2021/07/07 10:28:14;;;;;;;9.03;2.25;;;;;;;32.73;33.89;100928.91;1680078;83;20277;-71
2021/07/07 10:30:56;;;;;;;10.23;2.00;;;;;;;32.81;34.12;100927.58;1654497;84;21905;-71
2021/07/07 10:33:37;;;;;;;5.85;2.00;;;;;;;32.74;33.66;100928.37;1665301;85;21346;-71
2021/07/07 10:36:28;;;;;;;4.03;1.92;;;;;;;32.55;34.50;100926.67;1665073;85;21349;-73
2021/07/07 10:39:04;;;;;;;8.63;2.20;;;;;;;32.44;34.30;100923.59;1658845;84;21320;-72
2021/07/07 10:41:49;;;;;;;10.70;2.27;;;;;;;32.37;34.12;100927.91;1661126;85;21306;-72
2021/07/07 10:44:29;;;;;;;8.80;2.60;;;;;;;32.21;34.31;100940.27;1658330;85;21288;-72
2021/07/07 10:47:10;;;;;;;4.15;1.80;;;;;;;32.20;34.37;100933.21;1661285;85;21334;-74
2021/07/07 10:49:49;;;;;;;5.67;1.77;;;;;;;32.31;34.28;100932.21;1657585;86;21307;-72
2021/07/07 10:52:43;;;;;;;5.12;2.02;;;;;;;32.35;34.36;100940.91;1659743;86;21339;-71
2021/07/07 10:55:18;;;;;;;6.10;1.70;;;;;;;32.28;33.21;100937.61;1654158;84;22092;-68
2021/07/07 10:57:51;;;;;;;4.42;1.75;;;;;;;31.98;34.42;100933.34;1655462;84;21358;-70
2021/07/07 11:00:41;;;;;;;;;;;;;;;31.84;33.93;100932.95;1656274;84;21379;-71
2021/07/07 11:03:35;;;;;;;7.58;1.90;;;;;;;31.72;35.01;100938.25;1648847;86;20314;-71
2021/07/07 11:06:30;;;;;;;6.37;2.30;;;;;;;31.56;34.70;100930.56;1655428;84;21328;-74
2021/07/07 11:09:16;;;;;;;14.90;2.05;;;;;;;31.50;35.07;100941.61;1653799;86;21751;-71
2021/07/07 11:11:51;;;;;;;4.35;1.62;;;;;;;31.40;34.10;100941.48;1671412;85;21684;-72
2021/07/07 11:14:27;;;;;;;8.13;1.92;;;;;;;31.28;34.84;100937.05;1673295;85;21325;-69
2021/07/07 11:17:01;;;;;;;5.03;2.00;;;;;;;31.27;34.07;100929.17;1680590;84;21213;-74
2021/07/07 11:19:50;;;;;;;5.50;1.65;;;;;;;31.31;34.03;100932.45;1672003;85;21248;-70
2021/07/07 11:22:25;;;;;;;5.60;1.82;;;;;;;31.33;33.94;100938.42;1675632;85;21839;-65
2021/07/07 11:25:04;;;;;;;4.70;2.27;;;;;;;31.25;33.91;100950.26;1649103;85;21185;-71
2021/07/07 11:27:37;;;;;;;6.45;1.65;;;;;;;31.06;33.44;100943.03;1677059;84;21314;-72
2021/07/07 11:30:13;;;;;;;5.62;1.70;;;;;;;31.01;33.09;100946.20;1673085;84;21236;-72
2021/07/07 11:32:49;;;;;;;7.42;2.00;;;;;;;31.02;33.43;100950.55;1647202;85;21260;-71
2021/07/07 11:35:30;;;;;;;6.87;2.15;;;;;;;31.03;34.46;100944.06;1654592;85;21331;-71
2021/07/07 11:38:08;;;;;;;12.63;2.20;;;;;;;31.06;34.26;100941.68;1668531;85;21303;-71
2021/07/07 11:40:43;;;;;;;3.98;1.80;;;;;;;31.08;34.18;100930.59;1684252;84;21331;-73
2021/07/07 11:43:19;;;;;;;3.33;1.90;;;;;;;31.06;34.61;100940.86;1669128;84;22487;-70
2021/07/07 11:46:13;;;;;;;5.50;1.70;;;;;;;31.09;34.14;100951.17;1682177;84;21805;-70
2021/07/07 11:48:48;;;;;;;6.62;2.12;;;;;;;31.06;33.18;100945.73;1681786;84;21315;-72
2021/07/07 11:51:22;;;;;;;4.12;1.90;;;;;;;30.91;33.10;100942.85;1685765;84;21316;-73
2021/07/07 11:53:55;;;;;;;8.25;2.22;;;;;;;30.90;33.74;100946.64;1680754;84;21231;-73
2021/07/07 11:56:30;;;;;;;;;;;;;;;30.97;33.58;100949.14;1682568;84;21288;-72
2021/07/07 11:59:03;;;;;;;4.58;1.87;;;;;;;30.97;33.66;100952.67;1686216;84;20204;-69
2021/07/07 12:01:37;;;;;;;3.70;1.62;;;;;;;30.99;33.50;100944.30;1660593;84;21195;-68
2021/07/07 12:04:17;;;;;;;6.72;2.05;;;;;;;30.97;33.37;100949.97;1686368;84;21304;-71
2021/07/07 12:06:48;;;;;;;4.22;2.05;;;;;;;30.87;33.44;100952.52;1684862;84;21180;-71
2021/07/07 12:09:22;;;;;;;8.68;2.40;;;;;;;30.81;33.75;100954.06;1680397;85;21833;-70
2021/07/07 12:12:00;;;;;;;4.62;2.33;;;;;;;30.77;34.56;100956.97;1679898;84;21187;-69
2021/07/07 12:14:35;;;;;;;5.62;1.90;;;;;;;30.76;35.46;100953.47;1677935;84;21335;-72
2021/07/07 12:17:09;;;;;;;2.62;1.62;;;;;;;30.68;32.98;100952.55;1647505;85;21340;-71
2021/07/07 12:19:44;;;;;;;5.67;1.90;;;;;;;30.61;32.85;100957.33;1687700;84;21237;-69
2021/07/07 12:22:20;;;;;;;17.17;2.47;;;;;;;30.58;33.01;100957.30;1675273;83;21306;-73
2021/07/07 12:24:51;;;;;;;3.02;1.90;;;;;;;30.58;34.11;100958.64;1687903;84;21822;-72
2021/07/07 12:27:25;;;;;;;8.43;1.80;;;;;;;30.59;34.36;100965.66;1683599;84;21746;-71
2021/07/07 12:30:01;;;;;;;5.80;1.87;;;;;;;30.53;33.65;100968.55;1685463;84;21175;-76
2021/07/07 12:32:59;;;;;;;4.58;1.80;;;;;;;30.45;33.74;100964.95;1687296;84;21839;-67
2021/07/07 12:35:47;;;;;;;5.30;2.22;;;;;;;30.38;34.25;100967.81;1686898;84;21316;-73
2021/07/07 12:38:22;;;;;;;1.98;1.52;;;;;;;30.41;34.54;100974.08;1677602;83;21343;-70
2021/07/07 12:40:56;;;;;;;3.72;1.70;;;;;;;30.40;33.24;100962.97;1678136;84;21204;-72
2021/07/07 12:43:40;;;;;;;2.92;1.42;;;;;;;30.40;33.51;100968.94;1688511;84;21379;-72
2021/07/07 12:46:06;;;;;;;4.30;2.10;;;;;;;30.44;34.40;100976.81;1681967;84;21845;-70
2021/07/07 12:48:54;;;;;;;5.40;1.57;;;;;;;30.42;33.97;100972.20;1686896;83;21198;-72
2021/07/07 12:51:29;;;;;;;10.65;2.25;;;;;;;30.36;33.45;100979.41;1682875;84;21165;-70
2021/07/07 12:54:04;;;;;;;2.08;1.70;;;;;;;30.27;32.94;100974.64;1680919;84;21300;-68
2021/07/07 12:56:37;;;;;;;5.70;1.85;;;;;;;30.22;33.78;100983.48;1650602;84;21295;-70
2021/07/07 12:59:13;;;;;;;2.15;1.92;;;;;;;30.19;33.79;100979.13;1673923;84;21854;-70
2021/07/07 13:01:47;;;;;;;3.92;1.80;;;;;;;30.14;33.66;100984.45;1672665;85;22249;-70
2021/07/07 13:04:21;;;;;;;5.50;1.47;;;;;;;30.04;34.26;100988.34;1658007;84;21284;-71
2021/07/07 13:07:09;;;;;;;3.67;1.75;;;;;;;29.98;34.29;100990.13;1679814;84;21229;-71
2021/07/07 13:09:43;;;;;;;3.35;2.25;;;;;;;29.95;33.36;100986.03;1678784;85;21875;-73
2021/07/07 13:12:16;;;;;;;3.77;1.70;;;;;;;29.92;33.69;100997.34;1689195;84;21278;-71
2021/07/07 13:14:53;;;;;;;3.72;1.52;;;;;;;29.91;33.42;100994.34;1638301;84;21598;-69
2021/07/07 13:17:26;;;;;;;5.08;1.70;;;;;;;29.88;33.79;100989.95;1678627;84;21307;-70
2021/07/07 13:20:01;;;;;;;4.05;1.45;;;;;;;29.86;33.24;100993.44;1669306;84;21527;-68
2021/07/07 13:22:34;;;;;;;6.92;1.50;;;;;;;29.85;33.57;100994.52;1653319;85;21312;-68
2021/07/07 13:25:08;;;;;;;3.40;1.67;;;;;;;29.86;33.70;100995.61;1693281;84;21205;-68
2021/07/07 13:27:42;;;;;;;4.80;1.77;;;;;;;29.86;33.95;100988.86;1683234;84;21319;-69
2021/07/07 13:30:19;;;;;;;6.22;2.10;;;;;;;29.85;34.65;100993.17;1683760;84;21779;-70
2021/07/07 13:32:52;;;;;;;7.50;1.95;;;;;;;29.85;34.87;101002.61;1675734;84;21245;-71
2021/07/07 13:35:25;;;;;;;4.67;1.50;;;;;;;29.79;35.07;101007.63;1682152;84;21810;-72
2021/07/07 13:38:00;;;;;;;3.95;1.50;;;;;;;29.69;35.81;100996.61;1686477;84;21250;-71
2021/07/07 13:40:35;;;;;;;3.30;1.70;;;;;;;29.63;35.92;100996.25;1636230;84;21332;-69
2021/07/07 13:43:08;;;;;;;;;;;;;;;29.56;36.34;101002.33;1683719;84;21368;-74
2021/07/07 13:45:41;;;;;;;4.22;1.75;;;;;;;29.50;35.93;101006.81;1682904;84;20227;-73
2021/07/07 13:48:15;;;;;;;5.37;1.92;;;;;;;29.44;36.85;101006.97;1686321;84;21670;-67
2021/07/07 13:50:48;;;;;;;6.08;1.65;;;;;;;29.39;36.48;101007.69;1624940;88;21329;-73
2021/07/07 13:53:22;;;;;;;2.80;1.50;;;;;;;29.38;37.21;101011.98;1625954;87;21294;-69
2021/07/07 13:55:55;;;;;;;2.15;1.50;;;;;;;29.34;36.87;101007.59;1618641;88;21946;-74
2021/07/07 13:58:29;;;;;;;6.58;1.70;;;;;;;29.31;37.09;101008.89;1625382;88;22367;-69
2021/07/07 14:01:02;;;;;;;11.43;1.80;;;;;;;29.27;37.85;101017.70;1625717;88;21162;-69
2021/07/07 14:03:36;;;;;;;5.33;1.67;;;;;;;29.24;37.54;101017.66;1609271;88;21327;-69
2021/07/07 14:06:10;;;;;;;5.05;1.47;;;;;;;29.22;37.85;101017.60;1645309;87;21331;-67
2021/07/07 14:08:43;;;;;;;4.20;1.67;;;;;;;29.20;37.29;101021.07;1639141;87;21300;-67
2021/07/07 14:11:16;;;;;;;;;;;;;;;29.13;36.87;101019.84;1627486;88;21365;-68
2021/07/07 14:13:48;;;;;;;4.12;1.60;;;;;;;29.09;37.15;101024.05;1628084;87;20273;-70
2021/07/07 14:16:22;;;;;;;4.12;1.40;;;;;;;29.01;37.16;101023.09;1652019;86;21820;-69
2021/07/07 14:18:56;;;;;;;5.25;1.72;;;;;;;28.99;37.06;101029.78;1650397;87;21188;-67
2021/07/07 14:21:29;;;;;;;3.15;1.77;;;;;;;28.94;37.33;101022.93;1638891;87;21292;-68
2021/07/07 14:24:04;;;;;;;4.50;1.50;;;;;;;28.89;37.57;101026.86;1643145;85;21193;-65
2021/07/07 14:26:37;;;;;;;3.17;1.40;;;;;;;28.86;37.13;101025.98;1672796;85;21923;-70
2021/07/07 14:29:11;;;;;;;3.37;1.82;;;;;;;28.80;36.69;101028.29;1657885;85;21345;-71
2021/07/07 14:31:45;;;;;;;4.40;1.52;;;;;;;28.72;36.90;101038.07;1709152;84;21149;-64
2021/07/07 14:34:19;;;;;;;25.65;2.85;;;;;;;28.67;36.51;101028.83;1710063;84;21339;-65
2021/07/07 14:36:52;;;;;;;2.62;1.40;;;;;;;28.64;36.31;101030.64;1709721;83;21200;-66
2021/07/07 14:39:26;;;;;;;5.85;1.65;;;;;;;28.60;36.49;101038.09;1699039;84;21288;-69
2021/07/07 14:41:59;;;;;;;1.60;1.20;;;;;;;28.54;36.64;101048.44;1709075;84;21228;-65
2021/07/07 14:44:32;;;;;;;5.30;1.40;;;;;;;28.51;36.25;101044.34;1710675;84;21367;-67
2021/07/07 14:47:05;;;;;;;5.42;1.60;;;;;;;28.45;36.45;101042.56;1692390;84;21260;-66
2021/07/07 14:49:40;;;;;;;3.35;1.37;;;;;;;28.39;36.12;101039.47;1682202;84;21300;-69
2021/07/07 14:52:13;;;;;;;3.12;1.27;;;;;;;28.37;36.29;101046.14;1681821;84;21280;-69
2021/07/07 14:54:46;;;;;;;3.85;1.40;;;;;;;28.28;35.93;101057.77;1695138;84;21280;-70
2021/07/07 14:57:19;;;;;;;4.83;1.90;;;;;;;28.28;35.93;101057.77;1710174;84;21217;-67
2021/07/07 14:59:53;;;;;;;3.00;1.70;;;;;;;28.26;36.22;101065.78;1683023;84;21395;-64
2021/07/07 15:02:27;;;;;;;1.55;1.17;;;;;;;28.22;36.25;101062.75;1679637;84;21299;-64
2021/07/07 15:05:00;;;;;;;4.65;1.37;;;;;;;28.15;36.16;101071.46;1709302;84;21339;-69
2021/07/07 15:07:34;;;;;;;7.20;1.50;;;;;;;28.11;35.89;101070.26;1708758;84;21264;-66
2021/07/07 15:10:29;;;;;;;5.05;1.37;;;;;;;28.06;36.08;101072.85;1657955;86;21311;-66
2021/07/07 15:13:06;;;;;;;2.37;1.05;;;;;;;28.02;36.21;101075.17;1669902;85;21751;-65
2021/07/07 15:15:40;;;;;;;4.53;1.20;;;;;;;27.94;36.68;101076.80;1663277;86;21336;-66
2021/07/07 15:18:14;;;;;;;4.05;1.30;;;;;;;27.84;36.76;101076.56;1678548;85;21216;-64
2021/07/07 15:20:47;;;;;;;3.90;1.30;;;;;;;27.84;36.76;101076.56;1679968;85;21407;-63
2021/07/07 15:23:20;;;;;;;6.10;1.85;;;;;;;27.80;36.76;101082.08;1680119;85;21363;-64
2021/07/07 15:25:55;;;;;;;7.92;1.30;;;;;;;27.74;36.82;101084.87;1676178;85;21296;-66
2021/07/07 15:28:28;;;;;;;9.20;1.30;;;;;;;27.69;37.22;101088.77;1679429;85;21221;-66
2021/07/07 15:31:01;;;;;;;6.05;1.35;;;;;;;27.65;37.76;101088.94;1679738;85;21392;-67
2021/07/07 15:33:34;;;;;;;3.55;1.40;;;;;;;27.62;37.74;101089.38;1680008;85;21335;-65
2021/07/07 15:36:08;;;;;;;3.58;1.40;;;;;;;27.55;37.69;101096.20;1677953;85;21804;-65
2021/07/07 15:38:41;;;;;;;;;;;;;;;27.51;37.88;101095.55;1682232;85;21937;-68
2021/07/07 15:41:14;;;;;;;4.83;1.55;;;;;;;27.34;37.83;101097.48;1679996;85;20195;-65
2021/07/07 15:43:48;;;;;;;5.33;1.25;;;;;;;27.34;37.83;101097.48;1680783;85;21320;-64
2021/07/07 15:46:21;;;;;;;7.53;1.40;;;;;;;27.31;38.24;101107.33;1680426;85;21323;-66
2021/07/07 15:48:54;;;;;;;;;;;;;;;27.26;37.91;101105.01;1683074;85;21276;-63
2021/07/07 15:51:26;;;;;;;3.90;1.32;;;;;;;27.12;38.29;101104.86;1680197;85;20233;-64
2021/07/07 15:54:00;;;;;;;7.22;1.20;;;;;;;27.12;38.29;101104.86;1680866;85;21142;-63
2021/07/07 15:56:33;;;;;;;10.15;1.57;;;;;;;27.05;38.86;101101.42;1680534;85;21772;-63
2021/07/07 15:59:06;;;;;;;5.30;1.20;;;;;;;27.01;38.86;101115.02;1680927;85;21265;-64
2021/07/07 16:01:41;;;;;;;3.22;1.10;;;;;;;26.96;39.17;101118.89;1680229;85;21375;-64
2021/07/07 16:04:14;;;;;;;2.10;1.45;;;;;;;26.91;39.59;101120.08;1680574;85;21272;-65
2021/07/07 16:06:47;;;;;;;5.25;1.52;;;;;;;26.85;39.92;101123.63;1680444;85;21292;-64
2021/07/07 16:09:23;;;;;;;5.03;1.45;;;;;;;26.78;40.01;101122.36;1680698;85;21206;-67
2021/07/07 16:11:55;;;;;;;4.10;1.40;;;;;;;26.70;40.20;101119.39;1680357;85;21308;-65
2021/07/07 16:14:28;;;;;;;4.08;1.40;;;;;;;26.63;40.29;101127.20;1679778;85;21307;-64
2021/07/07 16:17:02;;;;;;;2.98;1.20;;;;;;;26.55;40.31;101127.50;1674191;86;21265;-65
2021/07/07 16:19:36;;;;;;;6.22;1.42;;;;;;;26.45;40.39;101131.19;1680541;85;21267;-66
2021/07/07 16:22:09;;;;;;;4.87;1.30;;;;;;;26.38;40.51;101138.47;1674527;86;21193;-65
2021/07/07 16:24:42;;;;;;;3.60;1.37;;;;;;;26.30;40.50;101136.05;1681003;85;21846;-64
2021/07/07 16:27:16;;;;;;;;;;;;;;;26.21;40.36;101143.55;1676594;86;21241;-66
2021/07/07 16:29:49;;;;;;;4.35;1.07;;;;;;;26.13;40.24;101144.34;1679465;85;20176;-67
2021/07/07 16:32:22;;;;;;;2.58;1.12;;;;;;;26.03;40.29;101140.75;1680270;85;21232;-67
2021/07/07 16:34:55;;;;;;;4.08;1.50;;;;;;;25.95;40.34;101145.02;1674577;86;21158;-69
2021/07/07 16:37:28;;;;;;;5.75;1.07;;;;;;;25.87;40.40;101145.26;1680260;85;21319;-66
2021/07/07 16:40:01;;;;;;;4.17;1.00;;;;;;;25.78;40.40;101150.57;1674883;86;21178;-66
2021/07/07 16:42:34;;;;;;;4.67;1.00;;;;;;;25.69;40.34;101150.00;1656807;85;21317;-67
2021/07/07 16:45:09;;;;;;;6.92;1.32;;;;;;;25.59;40.36;101148.28;1673083;86;21182;-67
2021/07/07 16:47:43;;;;;;;6.72;1.17;;;;;;;25.50;40.42;101145.54;1680238;85;21319;-67
2021/07/07 16:50:17;;;;;;;1.62;0.85;;;;;;;25.42;40.50;101152.44;1674558;86;21284;-68
2021/07/07 16:52:50;;;;;;;2.72;0.90;;;;;;;25.32;40.67;101147.52;1680435;85;21280;-68
2021/07/07 16:55:25;;;;;;;3.98;1.10;;;;;;;25.25;40.90;101149.90;1663815;86;21312;-69
2021/07/07 16:57:58;;;;;;;9.10;1.25;;;;;;;25.15;41.16;101152.21;1680214;85;21279;-68
2021/07/07 17:00:32;;;;;;;7.17;1.35;;;;;;;25.05;41.41;101158.00;1663442;86;21293;-67
2021/07/07 17:03:06;;;;;;;3.50;1.12;;;;;;;24.96;41.55;101164.58;1680223;85;21304;-69
2021/07/07 17:05:39;;;;;;;7.45;1.25;;;;;;;24.86;41.87;101156.68;1663464;86;21170;-69
2021/07/07 17:08:13;;;;;;;6.55;1.20;;;;;;;24.75;42.11;101157.57;1662621;86;21301;-69
2021/07/07 17:10:47;;;;;;;4.83;0.90;;;;;;;24.65;42.33;101162.51;1661892;85;21179;-68
2021/07/07 17:13:21;;;;;;;4.05;1.12;;;;;;;24.53;42.45;101161.47;1663787;85;21238;-70
2021/07/07 17:15:54;;;;;;;2.35;1.20;;;;;;;24.43;42.63;101162.38;1672145;86;21195;-69
2021/07/07 17:18:28;;;;;;;2.37;0.98;;;;;;;24.32;42.89;101165.67;1673032;86;21203;-69